Time;durP1;ratioP1;P1;durP2;ratioP2;P2;SDS_P1;SDS_P2;PMS_P1;PMS_P2;Temp;Humidity;BMP_temperature;BMP_pressure;BME280_temperature;BME280_humidity;BME280_pressure;Samples;Min_cycle;Max_cycle;Signal;HPM_P1;HPM_P2
2021/07/20 00:00:14;;;;;;;;;;;26.20;95.70;;;;;;1821376;77;20257;-90
2021/07/20 00:02:45;;;;;;;;;;;26.20;95.70;;;;;;1824832;78;20179;-89
2021/07/20 00:05:21;;;;;;;;;;;26.20;95.80;;;;;;1824636;77;20484;-90
2021/07/20 00:07:53;;;;;;;;;;;26.20;96.00;;;;;;1867700;75;20182;-90
2021/07/20 00:10:30;;;;;;;;;;;26.20;96.10;;;;;;1899350;74;20486;-90
2021/07/20 00:13:00;;;;;;;;;;;26.10;96.20;;;;;;1910103;74;20174;-90
2021/07/20 00:18:33;;;;;;;;;;;26.10;96.30;;;;;;1784211;79;20215;-90
2021/07/20 00:21:09;;;;;;;;;;;26.10;96.30;;;;;;1768012;80;20249;-89
2021/07/20 00:23:36;;;;;;;;;;;26.10;96.80;;;;;;1796304;78;20248;-89
2021/07/20 00:26:09;;;;;;;;;;;26.10;96.40;;;;;;1765778;80;20365;-89
2021/07/20 00:28:41;;;;;;;;;;;26.10;96.40;;;;;;1758696;81;20176;-91
2021/07/20 00:31:19;;;;;;;;;;;26.10;96.50;;;;;;1762997;81;20489;-91
2021/07/20 00:33:49;;;;;;;;;;;26.10;96.50;;;;;;1757059;80;20147;-89
2021/07/20 00:36:19;;;;;;;;;;;26.10;96.50;;;;;;1796627;78;20228;-88
2021/07/20 00:38:48;;;;;;;;;;;26.10;96.60;;;;;;1783528;79;20231;-89
2021/07/20 00:41:19;;;;;;;;;;;26.10;96.50;;;;;;1769535;80;20195;-88
2021/07/20 00:43:49;;;;;;;;;;;26.10;96.50;;;;;;1776663;79;20312;-91
2021/07/20 00:46:18;;;;;;;;;;;26.20;96.60;;;;;;1795527;78;20229;-89
2021/07/20 00:48:48;;;;;;;;;;;26.20;96.50;;;;;;1795831;78;20242;-90
2021/07/20 00:51:18;;;;;;;;;;;26.20;96.40;;;;;;1801395;78;20324;-87
2021/07/20 00:53:57;;;;;;;;;;;26.30;96.50;;;;;;1766075;79;20513;-92
2021/07/20 00:56:28;;;;;;;;;;;26.30;96.40;;;;;;1849551;77;20219;-91
2021/07/20 00:59:07;;;;;;;;;;;26.30;96.40;;;;;;1817514;77;20179;-90
2021/07/20 01:01:48;;;;;;;;;;;26.40;96.40;;;;;;1856090;76;20137;-91
2021/07/20 01:04:10;;;;;;;;;;;26.40;96.00;;;;;;1829476;77;20719;-90
2021/07/20 01:06:47;;;;;;;;;;;26.50;95.90;;;;;;1696598;83;20453;-88
2021/07/20 01:09:18;;;;;;;;;;;26.50;95.80;;;;;;1687999;83;20171;-87
2021/07/20 01:11:45;;;;;;;;;;;26.60;95.90;;;;;;1737335;82;20188;-90
2021/07/20 01:17:22;;;;;;;;;;;26.60;95.60;;;;;;1695710;83;20181;-89
2021/07/20 01:19:53;;;;;;;;;;;26.70;95.80;;;;;;1701981;83;20230;-93
2021/07/20 01:22:24;;;;;;;;;;;26.70;95.70;;;;;;1704488;82;20187;-86
2021/07/20 01:24:54;;;;;;;;;;;26.80;95.70;;;;;;1755942;77;20239;-89
2021/07/20 01:27:26;;;;;;;;;;;26.90;95.00;;;;;;1822909;77;20237;-89
2021/07/20 01:32:45;;;;;;;;;;;26.80;95.00;;;;;;1729730;81;20238;-89
2021/07/20 01:35:16;;;;;;;;;;;26.80;95.20;;;;;;1746118;81;20203;-91
2021/07/20 01:37:46;;;;;;;;;;;26.90;95.20;;;;;;1742803;81;20588;-86
2021/07/20 01:40:15;;;;;;;;;;;26.80;95.00;;;;;;1750258;81;20196;-89
2021/07/20 01:42:46;;;;;;;;;;;26.80;95.00;;;;;;1744289;81;20262;-88
2021/07/20 01:45:26;;;;;;;;;;;26.80;95.20;;;;;;1740782;81;20605;-90
2021/07/20 01:47:56;;;;;;;;;;;26.80;95.30;;;;;;1743654;81;20141;-89
2021/07/20 01:50:35;;;;;;;;;;;26.80;95.50;;;;;;1746265;81;20237;-92
2021/07/20 01:56:05;;;;;;;;;;;26.90;95.20;;;;;;1765544;80;20311;-89
2021/07/20 01:56:59;;;;;;;;;;;26.80;95.40;;;;;;1749147;82;20176;-94
2021/07/20 01:58:38;;;;;;;;;;;27.00;95.20;;;;;;1792877;78;20204;-90
2021/07/20 02:01:09;;;;;;;;;;;27.10;95.00;;;;;;1806271;79;20244;-90
2021/07/20 02:04:09;;;;;;;;;;;;;;;;;;;;;
2021/07/20 02:09:04;;;;;;;;;;;27.20;94.60;;;;;;1836176;75;20185;-89
2021/07/20 02:12:29;;;;;;;;;;;27.30;94.70;;;;;;1912125;74;20233;-86
2021/07/20 02:14:19;;;;;;;;;;;27.30;94.40;;;;;;1887169;75;20125;-88
2021/07/20 02:16:49;;;;;;;;;;;27.30;94.10;;;;;;1899878;75;20264;-90
2021/07/20 02:19:19;;;;;;;;;;;27.30;94.20;;;;;;1899650;75;20163;-91
2021/07/20 02:21:51;;;;;;;;;;;27.40;94.00;;;;;;1904177;75;20189;-90
2021/07/20 02:24:21;;;;;;;;;;;27.30;94.10;;;;;;1894734;75;20204;-89
2021/07/20 02:26:55;;;;;;;;;;;27.30;94.20;;;;;;1855200;76;20469;-89
2021/07/20 02:29:25;;;;;;;;;;;27.40;94.20;;;;;;1899297;75;20236;-89
2021/07/20 02:32:01;;;;;;;;;;;27.50;94.10;;;;;;1891075;74;20252;-87
2021/07/20 02:34:48;;;;;;;;;;;27.60;94.00;;;;;;1870060;75;20214;-89
2021/07/20 02:37:18;;;;;;;;;;;27.70;93.80;;;;;;1902554;74;20225;-90
2021/07/20 02:39:53;;;;;;;;;;;27.80;93.30;;;;;;1901299;75;20119;-90
2021/07/20 02:43:08;;;;;;;;;;;27.80;93.20;;;;;;1900438;75;20173;-90
2021/07/20 02:45:05;;;;;;;;;;;27.80;93.30;;;;;;1876813;75;20153;-88
2021/07/20 02:47:36;;;;;;;;;;;27.90;93.00;;;;;;1893036;75;20506;-89
2021/07/20 02:50:10;;;;;;;;;;;27.80;93.10;;;;;;1901011;75;20251;-87
2021/07/20 02:52:49;;;;;;;;;;;27.80;93.50;;;;;;1892954;75;20248;-89
2021/07/20 02:55:19;;;;;;;;;;;27.90;93.80;;;;;;1898344;75;20144;-88
2021/07/20 02:57:49;;;;;;;;;;;27.90;93.50;;;;;;1896643;75;20251;-88
2021/07/20 03:01:42;;;;;;;;;;;28.00;92.90;;;;;;1898650;75;20158;-88
2021/07/20 03:03:18;;;;;;;;;;;28.00;92.90;;;;;;1870232;75;20231;-89
2021/07/20 03:06:07;;;;;;;;;;;28.00;92.60;;;;;;1899387;75;20152;-89
2021/07/20 03:08:23;;;;;;;;;;;28.00;93.10;;;;;;1888705;75;20137;-88
2021/07/20 03:10:53;;;;;;;;;;;27.90;93.10;;;;;;1904302;75;20306;-89
2021/07/20 03:13:24;;;;;;;;;;;27.90;92.90;;;;;;1898725;75;20257;-89
2021/07/20 03:15:55;;;;;;;;;;;28.00;93.10;;;;;;1892078;75;20237;-88
2021/07/20 03:18:25;;;;;;;;;;;28.00;93.20;;;;;;1884751;75;20189;-87
2021/07/20 03:20:55;;;;;;;;;;;28.00;92.90;;;;;;1873330;75;20173;-88
2021/07/20 03:23:28;;;;;;;;;;;28.10;92.80;;;;;;1902080;75;20197;-88
2021/07/20 03:26:01;;;;;;;;;;;28.20;92.30;;;;;;1892492;75;20169;-90
2021/07/20 03:28:30;;;;;;;;;;;28.20;92.30;;;;;;1907582;75;20230;-90
2021/07/20 03:31:01;;;;;;;;;;;28.20;92.60;;;;;;1902589;75;20208;-88
2021/07/20 03:33:31;;;;;;;;;;;28.20;92.20;;;;;;1898937;75;20229;-90
2021/07/20 03:36:07;;;;;;;;;;;28.20;92.40;;;;;;1890941;75;20256;-90
2021/07/20 03:38:38;;;;;;;;;;;28.10;92.50;;;;;;1889117;74;20185;-88
2021/07/20 03:41:14;;;;;;;;;;;28.10;92.90;;;;;;1900563;75;20127;-90
2021/07/20 03:43:40;;;;;;;;;;;28.20;92.90;;;;;;1896598;75;20805;-90
2021/07/20 03:46:11;;;;;;;;;;;28.30;92.60;;;;;;1900246;75;20209;-89
2021/07/20 03:48:41;;;;;;;;;;;28.50;92.60;;;;;;1899564;74;20190;-89
2021/07/20 03:51:14;;;;;;;;;;;28.60;91.90;;;;;;1902994;75;20213;-90
2021/07/20 03:53:44;;;;;;;;;;;28.70;91.30;;;;;;1900217;75;20178;-88
2021/07/20 03:56:15;;;;;;;;;;;28.80;90.80;;;;;;1894408;75;20187;-88
2021/07/20 03:58:46;;;;;;;;;;;28.80;91.30;;;;;;1900634;75;20307;-88
2021/07/20 04:01:16;;;;;;;;;;;28.90;91.60;;;;;;1888332;75;20204;-88
2021/07/20 04:03:46;;;;;;;;;;;29.00;91.70;;;;;;1891779;75;20114;-89
2021/07/20 04:06:17;;;;;;;;;;;29.10;91.70;;;;;;1890092;75;20172;-89
2021/07/20 04:08:51;;;;;;;;;;;29.10;91.10;;;;;;1893937;75;20262;-89
2021/07/20 04:11:24;;;;;;;;;;;29.00;90.90;;;;;;1879012;76;20273;-89
2021/07/20 04:13:56;;;;;;;;;;;28.80;91.40;;;;;;1875077;76;20132;-87
2021/07/20 04:16:26;;;;;;;;;;;28.70;91.80;;;;;;1877018;76;20301;-88
2021/07/20 04:18:56;;;;;;;;;;;28.60;92.20;;;;;;1844518;76;20231;-88
2021/07/20 04:21:26;;;;;;;;;;;28.60;92.40;;;;;;1849382;77;20183;-90
2021/07/20 04:23:56;;;;;;;;;;;28.60;92.60;;;;;;1852511;76;20200;-88
2021/07/20 04:26:26;;;;;;;;;;;28.50;92.70;;;;;;1859063;76;20270;-88
2021/07/20 04:28:56;;;;;;;;;;;28.40;92.80;;;;;;1851312;76;20189;-89
2021/07/20 04:31:27;;;;;;;;;;;28.30;93.10;;;;;;1856676;76;20429;-89
2021/07/20 04:33:57;;;;;;;;;;;28.30;93.60;;;;;;1851431;76;20243;-88
2021/07/20 04:36:26;;;;;;;;;;;28.30;93.60;;;;;;1840287;77;20224;-88
2021/07/20 04:38:57;;;;;;;;;;;28.30;93.60;;;;;;1860383;77;20125;-87
2021/07/20 04:41:26;;;;;;;;;;;28.40;93.60;;;;;;1847396;77;20171;-88
2021/07/20 04:43:56;;;;;;;;;;;28.50;93.10;;;;;;1856559;77;20138;-88
2021/07/20 04:46:39;;;;;;;;;;;28.60;93.00;;;;;;1859845;77;20208;-90
2021/07/20 04:49:27;;;;;;;;;;;28.70;92.70;;;;;;1823729;77;20164;-87
2021/07/20 04:52:01;;;;;;;;;;;28.80;92.60;;;;;;1827424;78;20209;-88
2021/07/20 04:54:54;;;;;;;;;;;28.90;92.60;;;;;;1821146;78;20217;-88
2021/07/20 04:57:25;;;;;;;;;;;29.00;92.60;;;;;;1827434;78;20233;-91
2021/07/20 05:00:15;;;;;;;;;;;29.10;92.20;;;;;;1836365;77;20275;-90
2021/07/20 05:02:44;;;;;;;;;;;29.10;91.90;;;;;;1838295;77;20210;-87
2021/07/20 05:05:25;;;;;;;;;;;29.10;92.00;;;;;;1834972;77;20320;-87
2021/07/20 05:07:55;;;;;;;;;;;29.10;92.10;;;;;;1836449;77;20221;-89
2021/07/20 05:10:26;;;;;;;;;;;29.10;92.10;;;;;;1839845;78;20281;-89
2021/07/20 05:12:56;;;;;;;;;;;29.20;92.00;;;;;;1842125;77;20471;-89
2021/07/20 05:15:26;;;;;;;;;;;29.30;92.00;;;;;;1833236;77;20328;-89
2021/07/20 05:21:14;;;;;;;;;;;29.50;90.90;;;;;;1775927;79;20425;-90
2021/07/20 05:23:47;;;;;;;;;;;29.40;91.10;;;;;;1766214;79;20313;-88
2021/07/20 05:26:17;;;;;;;;;;;29.60;90.90;;;;;;1817550;77;20394;-89
2021/07/20 05:28:48;;;;;;;;;;;29.60;90.80;;;;;;1818504;77;20171;-90
2021/07/20 05:31:18;;;;;;;;;;;29.60;90.60;;;;;;1823915;77;20239;-89
2021/07/20 05:34:03;;;;;;;;;;;29.60;91.00;;;;;;1826023;76;20134;-77
2021/07/20 05:36:23;;;;;;;;;;;29.70;90.50;;;;;;1813632;76;20171;-78
2021/07/20 05:38:53;;;;;;;;;;;29.80;90.40;;;;;;1836146;77;20123;-77
2021/07/20 05:41:23;;;;;;;;;;;29.90;90.30;;;;;;1834553;76;20167;-78
2021/07/20 05:43:54;;;;;;;;;;;30.00;90.20;;;;;;1838691;76;20203;-79
2021/07/20 05:46:24;;;;;;;;;;;30.00;89.30;;;;;;1835981;77;20281;-78
2021/07/20 05:49:17;;;;;;;;;;;30.00;89.80;;;;;;1828595;76;20191;-77
2021/07/20 05:51:49;;;;;;;;;;;29.90;89.70;;;;;;1812202;77;20217;-77
2021/07/20 05:54:18;;;;;;;;;;;29.90;88.80;;;;;;1826061;77;20442;-77
2021/07/20 05:56:49;;;;;;;;;;;29.80;89.40;;;;;;1841637;76;20289;-77
2021/07/20 05:59:19;;;;;;;;;;;29.80;89.90;;;;;;1816075;76;20256;-77
2021/07/20 06:01:51;;;;;;;;;;;29.80;90.10;;;;;;1831087;76;20510;-77
2021/07/20 06:04:21;;;;;;;;;;;29.70;90.10;;;;;;1835649;76;20507;-79
2021/07/20 06:06:53;;;;;;;;;;;29.70;90.50;;;;;;1826674;77;20647;-78
2021/07/20 06:09:22;;;;;;;;;;;29.70;90.30;;;;;;1821277;77;20190;-78
2021/07/20 06:11:54;;;;;;;;;;;29.80;90.30;;;;;;1827485;77;20146;-79
2021/07/20 06:14:30;;;;;;;;;;;29.90;90.60;;;;;;1829729;77;20178;-77
2021/07/20 06:17:00;;;;;;;;;;;29.90;90.20;;;;;;1833370;77;20525;-79
2021/07/20 06:19:30;;;;;;;;;;;30.00;90.00;;;;;;1841837;76;20226;-76
2021/07/20 06:22:01;;;;;;;;;;;30.00;89.80;;;;;;1874546;75;20196;-77
2021/07/20 06:24:33;;;;;;;;;;;30.10;90.10;;;;;;1854615;76;20282;-79
2021/07/20 06:27:03;;;;;;;;;;;30.10;90.20;;;;;;1845600;76;20276;-78
2021/07/20 06:29:34;;;;;;;;;;;30.10;90.00;;;;;;1862180;76;20129;-76
2021/07/20 06:32:04;;;;;;;;;;;30.20;89.60;;;;;;1852703;76;20172;-78
2021/07/20 06:34:41;;;;;;;;;;;30.20;89.60;;;;;;1863890;76;20192;-78
2021/07/20 06:37:11;;;;;;;;;;;30.20;89.00;;;;;;1870269;76;20221;-82
2021/07/20 06:39:43;;;;;;;;;;;30.30;89.70;;;;;;1857737;75;20710;-78
2021/07/20 06:42:13;;;;;;;;;;;30.30;89.20;;;;;;1852456;75;20127;-78
2021/07/20 06:44:44;;;;;;;;;;;30.20;89.40;;;;;;1867392;75;20211;-78
2021/07/20 06:47:16;;;;;;;;;;;30.30;89.40;;;;;;1873629;76;20187;-78
2021/07/20 06:49:57;;;;;;;;;;;;;;;;;;;;;
2021/07/20 06:52:49;;;;;;;;;;;30.30;89.40;;;;;;1840112;76;20208;-79
2021/07/20 06:55:15;;;;;;;;;;;30.50;89.70;;;;;;1863749;75;20270;-77
2021/07/20 06:57:46;;;;;;;;;;;30.60;87.70;;;;;;1865724;75;20212;-77
2021/07/20 07:00:17;;;;;;;;;;;30.70;87.70;;;;;;1856611;76;20160;-77
2021/07/20 07:02:48;;;;;;;;;;;30.70;87.10;;;;;;1871407;75;20168;-77
2021/07/20 07:05:18;;;;;;;;;;;30.70;86.80;;;;;;1866761;76;20499;-77
2021/07/20 07:07:49;;;;;;;;;;;30.70;86.70;;;;;;1868235;76;20259;-77
2021/07/20 07:10:19;;;;;;;;;;;30.80;87.30;;;;;;1863549;76;20592;-77
2021/07/20 07:12:50;;;;;;;;;;;30.80;87.10;;;;;;1865499;75;20242;-77
2021/07/20 07:15:25;;;;;;;;;;;30.90;87.40;;;;;;1870670;76;20208;-79
2021/07/20 07:17:58;;;;;;;;;;;31.00;86.50;;;;;;1865988;76;20121;-77
2021/07/20 07:23:19;;;;;;;;;;;31.00;86.00;;;;;;1867253;75;20191;-80
2021/07/20 07:29:18;;;;;;;;;;;31.10;84.90;;;;;;1796940;78;20184;-78
2021/07/20 07:31:48;;;;;;;;;;;31.20;84.00;;;;;;1806966;78;20136;-78
2021/07/20 07:34:19;;;;;;;;;;;31.20;85.00;;;;;;1805789;78;20238;-78
2021/07/20 07:36:57;;;;;;;;;;;31.30;84.30;;;;;;1709189;82;20260;-78
2021/07/20 07:39:27;;;;;;;;;;;31.30;84.00;;;;;;1709337;83;20195;-76
2021/07/20 07:42:01;;;;;;;;;;;31.30;83.00;;;;;;1715453;82;20223;-78
2021/07/20 07:44:47;;;;;;;;;;;31.30;82.90;;;;;;1747238;81;20223;-78
2021/07/20 07:47:17;;;;;;;;;;;31.30;83.70;;;;;;1738041;81;20199;-78
2021/07/20 07:49:47;;;;;;;;;;;31.30;81.50;;;;;;1733704;81;20148;-79
2021/07/20 07:52:17;;;;;;;;;;;31.30;82.00;;;;;;1735029;82;20250;-80
2021/07/20 07:54:48;;;;;;;;;;;31.30;81.70;;;;;;1756206;80;20532;-77
2021/07/20 07:57:18;;;;;;;;;;;31.30;81.40;;;;;;1790471;80;20269;-78
2021/07/20 07:59:55;;;;;;;;;;;31.30;81.70;;;;;;1790649;80;20517;-80
2021/07/20 08:02:28;;;;;;;;;;;31.30;81.50;;;;;;1792187;80;20246;-77
2021/07/20 08:05:01;;;;;;;;;;;31.20;80.90;;;;;;1790240;78;20487;-79
2021/07/20 08:07:50;;;;;;;;;;;31.20;80.20;;;;;;1812144;77;20245;-77
2021/07/20 08:10:20;;;;;;;;;;;31.20;80.50;;;;;;1851625;77;20142;-78
2021/07/20 08:12:50;;;;;;;;;;;31.10;80.20;;;;;;1843444;77;20184;-78
2021/07/20 08:15:20;;;;;;;;;;;31.10;80.10;;;;;;1852936;77;20389;-78
2021/07/20 08:17:50;;;;;;;;;;;31.00;80.40;;;;;;1853278;77;20321;-79
2021/07/20 08:20:20;;;;;;;;;;;31.00;80.60;;;;;;1827372;77;20234;-79
2021/07/20 08:22:50;;;;;;;;;;;31.10;81.00;;;;;;1832598;77;20137;-80
2021/07/20 08:25:21;;;;;;;;;;;31.10;80.00;;;;;;1839736;77;20191;-78
2021/07/20 08:27:52;;;;;;;;;;;31.20;80.40;;;;;;1794690;79;20184;-79
2021/07/20 08:30:23;;;;;;;;;;;31.30;80.70;;;;;;1772880;79;20246;-79
2021/07/20 08:33:02;;;;;;;;;;;31.30;80.00;;;;;;1839299;76;20196;-85
2021/07/20 08:35:29;;;;;;;;;;;31.30;79.30;;;;;;1838496;76;20613;-79
2021/07/20 08:38:02;;;;;;;;;;;31.30;79.80;;;;;;1838628;77;20487;-80
2021/07/20 08:40:33;;;;;;;;;;;31.30;80.40;;;;;;1842696;77;20231;-80
2021/07/20 08:43:13;;;;;;;;;;;31.30;80.60;;;;;;1840260;76;20200;-80
2021/07/20 08:45:46;;;;;;;;;;;31.30;80.80;;;;;;1840726;78;20206;-80
2021/07/20 08:48:18;;;;;;;;;;;31.40;81.30;;;;;;1783615;78;20438;-80
2021/07/20 08:50:48;;;;;;;;;;;31.40;80.00;;;;;;1778524;79;20440;-80
2021/07/20 08:53:19;;;;;;;;;;;31.40;81.10;;;;;;1791448;80;20165;-82
2021/07/20 08:55:54;;;;;;;;;;;31.50;79.60;;;;;;1839417;76;20184;-79
2021/07/20 08:58:25;;;;;;;;;;;31.50;78.40;;;;;;1795889;78;20237;-81
2021/07/20 09:01:17;;;;;;;;;;;31.50;77.50;;;;;;1793139;78;20244;-80
2021/07/20 09:03:58;;;;;;;;;;;31.50;78.80;;;;;;1790595;79;20283;-80
2021/07/20 09:06:44;;;;;;;;;;;31.50;78.30;;;;;;1785589;78;20328;-79
2021/07/20 09:09:18;;;;;;;;;;;31.50;77.60;;;;;;1773123;79;20461;-80
2021/07/20 09:11:47;;;;;;;;;;;31.40;78.60;;;;;;1798430;79;20231;-79
2021/07/20 09:14:18;;;;;;;;;;;31.40;79.30;;;;;;1793808;79;20184;-79
2021/07/20 09:16:50;;;;;;;;;;;31.30;79.40;;;;;;1796805;79;20138;-79
2021/07/20 09:19:21;;;;;;;;;;;31.30;79.00;;;;;;1788447;77;20606;-78
2021/07/20 09:21:52;;;;;;;;;;;31.30;79.90;;;;;;1818356;77;20135;-80
2021/07/20 09:24:22;;;;;;;;;;;31.40;80.10;;;;;;1832891;76;20140;-80
2021/07/20 09:26:53;;;;;;;;;;;31.40;79.90;;;;;;1765212;79;20243;-79
2021/07/20 09:29:24;;;;;;;;;;;31.50;78.10;;;;;;1829995;76;20531;-79
2021/07/20 09:31:56;;;;;;;;;;;31.60;78.00;;;;;;1834449;76;20218;-78
2021/07/20 09:34:27;;;;;;;;;;;31.60;78.10;;;;;;1826564;77;20209;-78
2021/07/20 09:36:58;;;;;;;;;;;31.50;77.60;;;;;;1825251;77;20451;-77
2021/07/20 09:39:32;;;;;;;;;;;31.50;77.10;;;;;;1760719;80;20194;-77
2021/07/20 09:42:01;;;;;;;;;;;31.40;76.90;;;;;;1825832;77;20119;-78
2021/07/20 09:44:32;;;;;;;;;;;31.30;77.20;;;;;;1825083;76;20249;-77
2021/07/20 09:47:04;;;;;;;;;;;31.20;77.80;;;;;;1828456;77;20244;-78
2021/07/20 09:49:35;;;;;;;;;;;31.20;78.50;;;;;;1828965;77;20218;-79
2021/07/20 09:52:05;;;;;;;;;;;31.10;78.50;;;;;;1799036;78;20471;-78
2021/07/20 09:54:36;;;;;;;;;;;31.00;78.90;;;;;;1796311;78;20485;-78
2021/07/20 09:57:07;;;;;;;;;;;31.00;79.50;;;;;;1798118;79;20171;-79
2021/07/20 09:59:38;;;;;;;;;;;31.00;79.60;;;;;;1825375;77;20214;-79
2021/07/20 10:02:09;;;;;;;;;;;31.00;80.20;;;;;;1829313;77;20196;-78
2021/07/20 10:04:42;;;;;;;;;;;31.00;80.60;;;;;;1823679;77;20790;-79
2021/07/20 10:07:13;;;;;;;;;;;31.00;80.50;;;;;;1815290;77;20214;-79
2021/07/20 10:09:46;;;;;;;;;;;31.00;80.60;;;;;;1825567;77;20241;-79
2021/07/20 10:12:17;;;;;;;;;;;31.00;80.60;;;;;;1828525;76;20194;-78
2021/07/20 10:14:48;;;;;;;;;;;30.90;81.10;;;;;;1830392;76;20163;-79
2021/07/20 10:17:19;;;;;;;;;;;30.90;81.40;;;;;;1822748;77;20505;-77
2021/07/20 10:19:50;;;;;;;;;;;31.00;81.20;;;;;;1838892;75;20451;-76
2021/07/20 10:22:22;;;;;;;;;;;31.00;81.10;;;;;;1862691;75;20200;-77
2021/07/20 10:24:53;;;;;;;;;;;31.00;81.30;;;;;;1861875;75;20232;-79
2021/07/20 10:27:25;;;;;;;;;;;30.90;81.30;;;;;;1873036;75;20202;-79
2021/07/20 10:29:56;;;;;;;;;;;30.90;81.30;;;;;;1878675;75;20255;-76
2021/07/20 10:32:27;;;;;;;;;;;30.90;80.50;;;;;;1866242;75;20331;-77
2021/07/20 10:35:03;;;;;;;;;;;30.90;80.60;;;;;;1867127;75;20153;-77
2021/07/20 10:37:30;;;;;;;;;;;30.80;79.60;;;;;;1882334;75;20223;-78
2021/07/20 10:40:01;;;;;;;;;;;30.80;80.10;;;;;;1869147;75;20255;-77
2021/07/20 10:42:32;;;;;;;;;;;30.80;80.20;;;;;;1870199;75;20180;-77
2021/07/20 10:45:09;;;;;;;;;;;30.80;80.60;;;;;;1873446;76;20505;-79
2021/07/20 10:47:37;;;;;;;;;;;30.80;80.90;;;;;;1869640;75;20196;-77
2021/07/20 10:50:08;;;;;;;;;;;30.70;81.30;;;;;;1860364;75;20212;-75
2021/07/20 10:52:39;;;;;;;;;;;30.70;81.80;;;;;;1874323;75;20184;-75
2021/07/20 10:55:17;;;;;;;;;;;30.70;82.10;;;;;;1876216;75;20129;-75
2021/07/20 10:57:44;;;;;;;;;;;30.60;82.60;;;;;;1869507;75;20148;-78
2021/07/20 11:00:15;;;;;;;;;;;30.60;82.90;;;;;;1869561;75;20448;-78
2021/07/20 11:02:46;;;;;;;;;;;30.50;83.20;;;;;;1857329;75;20227;-78
2021/07/20 11:05:24;;;;;;;;;;;30.50;83.40;;;;;;1864873;75;20196;-78
2021/07/20 11:08:02;;;;;;;;;;;30.50;83.90;;;;;;1874010;75;20125;-77
2021/07/20 11:10:33;;;;;;;;;;;30.40;83.70;;;;;;1890300;75;20154;-77
2021/07/20 11:13:05;;;;;;;;;;;30.40;83.50;;;;;;1871832;75;20219;-77
2021/07/20 11:15:35;;;;;;;;;;;30.40;83.80;;;;;;1872249;75;20481;-77
2021/07/20 11:18:06;;;;;;;;;;;30.40;84.00;;;;;;1871771;75;20219;-77
2021/07/20 11:20:40;;;;;;;;;;;30.30;84.00;;;;;;1869021;75;20725;-77
2021/07/20 11:23:10;;;;;;;;;;;30.30;83.80;;;;;;1866827;75;20192;-77
2021/07/20 11:25:42;;;;;;;;;;;30.20;83.70;;;;;;1874538;75;20174;-76
2021/07/20 11:28:12;;;;;;;;;;;30.20;84.00;;;;;;1880386;75;20250;-76
2021/07/20 11:30:43;;;;;;;;;;;30.20;84.20;;;;;;1863438;76;20191;-76
2021/07/20 11:33:13;;;;;;;;;;;30.20;84.20;;;;;;1865158;76;20172;-77
2021/07/20 11:35:45;;;;;;;;;;;30.10;84.30;;;;;;1866121;75;20215;-76
2021/07/20 11:38:19;;;;;;;;;;;30.10;84.40;;;;;;1863095;75;20172;-76
2021/07/20 11:40:50;;;;;;;;;;;30.10;84.40;;;;;;1862887;76;20223;-78
2021/07/20 11:43:26;;;;;;;;;;;30.10;84.50;;;;;;1862482;75;20214;-77
2021/07/20 11:45:54;;;;;;;;;;;30.10;84.60;;;;;;1868538;75;20360;-77
2021/07/20 11:48:25;;;;;;;;;;;30.00;84.70;;;;;;1856200;75;20209;-77
2021/07/20 11:51:00;;;;;;;;;;;30.00;84.70;;;;;;1860724;75;20183;-79
2021/07/20 11:53:28;;;;;;;;;;;30.00;85.20;;;;;;1873497;75;20227;-78
2021/07/20 11:55:59;;;;;;;;;;;29.90;85.30;;;;;;1870019;75;20202;-79
2021/07/20 11:58:34;;;;;;;;;;;29.90;85.40;;;;;;1869107;75;20221;-76
2021/07/20 12:01:04;;;;;;;;;;;29.90;85.50;;;;;;1848181;76;20197;-76
2021/07/20 12:03:36;;;;;;;;;;;29.90;85.70;;;;;;1872032;75;20227;-77
2021/07/20 12:06:07;;;;;;;;;;;29.80;85.80;;;;;;1872113;75;20226;-75
2021/07/20 12:08:38;;;;;;;;;;;29.80;85.80;;;;;;1869804;75;20245;-76
2021/07/20 12:11:09;;;;;;;;;;;29.90;86.10;;;;;;1865255;75;20180;-77
2021/07/20 12:13:48;;;;;;;;;;;29.80;86.00;;;;;;1870656;76;20167;-77
2021/07/20 12:16:11;;;;;;;;;;;29.80;86.10;;;;;;1826865;76;20189;-77
2021/07/20 12:18:42;;;;;;;;;;;29.80;86.40;;;;;;1865819;75;20133;-75
2021/07/20 12:21:12;;;;;;;;;;;29.80;86.50;;;;;;1859807;75;20278;-76
2021/07/20 12:23:42;;;;;;;;;;;29.80;86.60;;;;;;1867864;75;20211;-77
2021/07/20 12:26:13;;;;;;;;;;;29.80;86.90;;;;;;1869199;75;20179;-77
2021/07/20 12:28:43;;;;;;;;;;;29.70;87.00;;;;;;1857792;75;20499;-77
2021/07/20 12:31:13;;;;;;;;;;;29.80;87.10;;;;;;1870860;76;20230;-77
2021/07/20 12:33:45;;;;;;;;;;;29.70;87.20;;;;;;1863684;76;20215;-78
2021/07/20 12:36:16;;;;;;;;;;;29.70;87.30;;;;;;1837163;77;20129;-78
2021/07/20 12:38:46;;;;;;;;;;;29.70;87.70;;;;;;1848582;76;20180;-77
2021/07/20 12:41:16;;;;;;;;;;;29.70;87.90;;;;;;1796379;77;20168;-78
2021/07/20 12:43:49;;;;;;;;;;;29.70;88.20;;;;;;1839036;77;20474;-77
2021/07/20 12:46:24;;;;;;;;;;;29.60;88.40;;;;;;1856956;75;20384;-77
2021/07/20 12:48:54;;;;;;;;;;;29.60;88.50;;;;;;1858297;76;20436;-77
2021/07/20 12:51:31;;;;;;;;;;;29.60;88.70;;;;;;1856534;77;20203;-76
2021/07/20 12:54:03;;;;;;;;;;;29.60;88.90;;;;;;1857159;75;20184;-76
2021/07/20 12:56:33;;;;;;;;;;;29.60;89.20;;;;;;1832030;76;20699;-76
2021/07/20 12:59:10;;;;;;;;;;;29.60;89.20;;;;;;1812100;78;20236;-78
2021/07/20 13:01:36;;;;;;;;;;;29.60;89.50;;;;;;1824709;78;20136;-77
2021/07/20 13:04:08;;;;;;;;;;;29.50;89.60;;;;;;1869245;75;20228;-77
2021/07/20 13:06:40;;;;;;;;;;;29.50;89.90;;;;;;1872268;75;20204;-77
2021/07/20 13:09:10;;;;;;;;;;;29.50;90.00;;;;;;1841909;75;20235;-77
2021/07/20 13:11:42;;;;;;;;;;;29.50;90.10;;;;;;1874934;75;20261;-77
2021/07/20 13:14:17;;;;;;;;;;;29.50;90.20;;;;;;1869366;75;20481;-77
2021/07/20 13:16:47;;;;;;;;;;;29.50;90.20;;;;;;1867608;76;20175;-78
2021/07/20 13:19:22;;;;;;;;;;;29.50;90.20;;;;;;1869616;76;20249;-77
2021/07/20 13:21:52;;;;;;;;;;;29.50;90.30;;;;;;1866210;76;20137;-76
2021/07/20 13:24:23;;;;;;;;;;;29.40;90.30;;;;;;1858431;76;20264;-78
2021/07/20 13:26:54;;;;;;;;;;;29.40;90.30;;;;;;1863253;75;20240;-77
2021/07/20 13:29:24;;;;;;;;;;;29.40;90.40;;;;;;1861118;75;20203;-78
2021/07/20 13:31:55;;;;;;;;;;;29.40;90.40;;;;;;1868841;76;20533;-78
2021/07/20 13:34:41;;;;;;;;;;;29.40;90.50;;;;;;1848783;75;20310;-79
2021/07/20 13:37:21;;;;;;;;;;;29.40;90.60;;;;;;1859500;75;20227;-78
2021/07/20 13:58:37;;;;;;;;;;;29.30;91.20;;;;;;1933675;72;20181;-79
2021/07/20 14:02:29;;;;;;;;;;;29.20;91.20;;;;;;1915981;73;20201;-77
2021/07/20 14:04:20;;;;;;;;;;;29.20;91.30;;;;;;1883193;74;20564;-77
2021/07/20 14:07:43;;;;;;;;;;;29.20;91.30;;;;;;1799505;77;20569;-78
2021/07/20 14:13:14;;;;;;;;;;;29.10;91.20;;;;;;1805619;77;20598;-78
2021/07/20 14:16:04;;;;;;;;;;;29.20;91.30;;;;;;1808642;78;20196;-81
2021/07/20 14:19:07;;;;;;;;;;;29.20;91.30;;;;;;1711207;81;20485;-90
2021/07/20 14:21:47;;;;;;;;;;;29.20;91.40;;;;;;1762248;79;20217;-86
2021/07/20 14:24:18;;;;;;;;;;;29.10;91.40;;;;;;1775367;79;20147;-88
2021/07/20 14:27:03;;;;;;;;;;;29.10;91.40;;;;;;1791041;79;20469;-87
2021/07/20 14:32:53;;;;;;;;;;;29.10;91.40;;;;;;1718128;81;20250;-89
2021/07/20 14:35:24;;;;;;;;;;;29.10;91.40;;;;;;1725842;81;20300;-87
2021/07/20 14:38:05;;;;;;;;;;;29.10;91.40;;;;;;1725296;81;20276;-89
2021/07/20 14:46:45;;;;;;;;;;;;;;;;;;;;;
2021/07/20 14:49:09;;;;;;;;;;;29.10;91.50;;;;;;1639476;84;20666;-87
2021/07/20 14:54:51;;;;;;;;;;;29.00;91.50;;;;;;1711146;82;20216;-87
2021/07/20 15:01:27;;;;;;;;;;;29.10;91.50;;;;;;1617951;86;20233;-88
2021/07/20 15:10:04;;;;;;;;;;;29.00;91.50;;;;;;1561117;89;20404;-85
2021/07/20 15:18:51;;;;;;;;;;;29.00;91.40;;;;;;1512407;93;20542;-85
2021/07/20 15:21:36;;;;;;;;;;;28.90;91.70;;;;;;1930278;73;20176;-89
2021/07/20 15:24:28;;;;;;;;;;;28.90;91.80;;;;;;1900333;75;20146;-88
2021/07/20 15:29:56;;;;;;;;;;;28.90;92.10;;;;;;1833743;77;20240;-89
2021/07/20 15:32:37;;;;;;;;;;;28.80;92.10;;;;;;1893967;75;20185;-86
2021/07/20 15:35:04;;;;;;;;;;;28.80;92.20;;;;;;1906152;75;20130;-89
2021/07/20 15:37:50;;;;;;;;;;;28.80;92.30;;;;;;1900640;75;20597;-88
2021/07/20 15:41:01;;;;;;;;;;;;;;;;;;;;;
2021/07/20 15:43:40;;;;;;;;;;;28.80;92.40;;;;;;1888464;75;20193;-88
2021/07/20 15:46:28;;;;;;;;;;;28.70;92.40;;;;;;1898736;75;20208;-89
2021/07/20 15:49:52;;;;;;;;;;;28.80;92.40;;;;;;1879026;75;20127;-87
2021/07/20 15:52:26;;;;;;;;;;;28.80;92.40;;;;;;1840168;76;20135;-88
2021/07/20 15:55:01;;;;;;;;;;;28.70;92.40;;;;;;1745593;79;20251;-92
2021/07/20 15:57:59;;;;;;;;;;;28.70;92.40;;;;;;1747786;80;20244;-89
2021/07/20 16:07:13;;;;;;;;;;;28.70;92.40;;;;;;1620686;86;20800;-86
2021/07/20 16:09:45;;;;;;;;;;;28.70;92.50;;;;;;1623840;87;20214;-88
2021/07/20 16:12:17;;;;;;;;;;;28.70;92.40;;;;;;1624836;87;20205;-88
2021/07/20 16:14:47;;;;;;;;;;;28.70;92.40;;;;;;1624531;87;20256;-88
2021/07/20 16:17:20;;;;;;;;;;;28.70;92.40;;;;;;1626335;86;20255;-90